createdAt,value
2017-02-05T00:00:30.469Z,5.66
2017-02-05T00:01:31.604Z,5.72
2017-02-05T00:02:32.481Z,5.72
2017-02-05T00:03:33.381Z,5.72
2017-02-05T00:04:34.203Z,5.68
2017-02-05T00:05:35.301Z,5.72
2017-02-05T00:06:36.024Z,5.75
2017-02-05T00:07:36.756Z,5.69
2017-02-05T00:08:37.855Z,5.79
2017-02-05T00:09:38.663Z,5.82
2017-02-05T00:10:39.323Z,5.79
2017-02-05T00:11:40.201Z,5.86
2017-02-05T00:12:41.072Z,5.79
2017-02-05T00:13:41.902Z,5.83
2017-02-05T00:14:42.815Z,5.86
2017-02-05T00:15:43.565Z,5.8
2017-02-05T00:16:44.292Z,5.83
2017-02-05T00:17:45.027Z,5.84
2017-02-05T00:18:45.737Z,5.89
2017-02-05T00:19:46.437Z,5.89
2017-02-05T00:20:47.249Z,5.83
2017-02-05T00:21:47.955Z,5.82
2017-02-05T00:22:48.745Z,5.8
2017-02-05T00:23:49.506Z,5.79
2017-02-05T00:24:50.258Z,5.89
2017-02-05T00:25:51.007Z,5.82
2017-02-05T00:26:51.704Z,5.82
2017-02-05T00:27:52.430Z,5.86
2017-02-05T00:28:53.112Z,5.8
2017-02-05T00:29:53.851Z,5.83
2017-02-05T00:30:54.565Z,5.75
2017-02-05T00:31:55.257Z,5.73
2017-02-05T00:32:55.951Z,5.64
2017-02-05T00:33:56.661Z,5.73
2017-02-05T00:34:57.387Z,5.69
2017-02-05T00:35:58.095Z,5.65
2017-02-05T00:36:58.799Z,5.64
2017-02-05T00:37:59.544Z,5.51
2017-02-05T00:39:00.237Z,5.61
2017-02-05T00:40:01.010Z,5.59
2017-02-05T00:41:01.690Z,5.56
2017-02-05T00:42:02.421Z,5.62
2017-02-05T00:43:03.120Z,5.53
2017-02-05T00:44:03.855Z,5.65
2017-02-05T00:45:04.595Z,5.53
2017-02-05T00:46:05.251Z,5.56
2017-02-05T00:47:05.937Z,5.54
2017-02-05T00:48:06.828Z,5.56
2017-02-05T00:49:07.534Z,5.56
2017-02-05T00:50:08.228Z,5.53
2017-02-05T00:51:09.038Z,5.53
2017-02-05T00:52:09.725Z,5.38
2017-02-05T00:53:10.399Z,5.47
2017-02-05T00:54:11.067Z,5.44
2017-02-05T00:55:11.739Z,5.44
2017-02-05T00:56:12.668Z,5.46
2017-02-05T00:57:13.347Z,5.29
2017-02-05T00:58:14.137Z,5.33
2017-02-05T00:59:15.113Z,5.38
2017-02-05T01:00:15.854Z,5.43
2017-02-05T01:01:16.633Z,5.35
2017-02-05T01:02:17.393Z,5.33
2017-02-05T01:03:18.044Z,5.3
2017-02-05T01:04:18.843Z,5.36
2017-02-05T01:05:19.485Z,5.28
2017-02-05T01:06:20.214Z,5.26
2017-02-05T01:07:20.929Z,5.26
2017-02-05T01:08:21.784Z,5.28
2017-02-05T01:09:22.484Z,5.17
2017-02-05T01:10:23.217Z,5.18
2017-02-05T01:11:23.964Z,5.23
2017-02-05T01:12:24.678Z,5.18
2017-02-05T01:13:25.423Z,5.26
2017-02-05T01:14:26.107Z,5.25
2017-02-05T01:15:26.813Z,5.26
2017-02-05T01:16:27.504Z,5.14
2017-02-05T01:17:28.354Z,5.21
2017-02-05T01:18:29.182Z,5.18
2017-02-05T01:19:29.876Z,5.17
2017-02-05T01:20:30.746Z,5.18
2017-02-05T01:21:31.547Z,5.25
2017-02-05T01:22:32.199Z,5.23
2017-02-05T01:23:32.912Z,5.26
2017-02-05T01:24:33.662Z,5.14
2017-02-05T01:25:34.372Z,5.15
2017-02-05T01:26:35.073Z,5.11
2017-02-05T01:27:35.828Z,5.11
2017-02-05T01:28:36.466Z,5.07
2017-02-05T01:29:37.177Z,5.02
2017-02-05T01:30:38.022Z,4.99
2017-02-05T01:31:38.697Z,5.07
2017-02-05T01:32:39.420Z,5.05
2017-02-05T01:33:40.184Z,5
2017-02-05T01:34:40.822Z,5
2017-02-05T01:35:41.510Z,4.9
2017-02-05T01:36:42.215Z,4.99
2017-02-05T01:37:42.904Z,4.99
2017-02-05T01:38:43.586Z,4.87
2017-02-05T01:39:44.418Z,4.99
2017-02-05T01:40:45.101Z,4.99
2017-02-05T01:41:45.779Z,4.93
2017-02-05T01:42:46.461Z,4.97
2017-02-05T01:43:47.154Z,4.93
2017-02-05T01:44:47.833Z,4.99
2017-02-05T01:45:48.521Z,4.93
2017-02-05T01:46:49.247Z,4.9
2017-02-05T01:47:49.930Z,4.99
2017-02-05T01:48:50.620Z,4.87
2017-02-05T01:49:51.307Z,4.96
2017-02-05T01:50:51.968Z,5.02
2017-02-05T01:51:52.648Z,4.97
2017-02-05T01:52:53.363Z,4.87
2017-02-05T01:53:54.114Z,4.89
2017-02-05T01:54:54.811Z,4.94
2017-02-05T01:55:55.489Z,4.9
2017-02-05T01:56:56.170Z,4.78
2017-02-05T01:57:56.854Z,4.74
2017-02-05T01:58:57.555Z,4.78
2017-02-05T01:59:58.253Z,4.7
2017-02-05T02:00:58.927Z,4.7
2017-02-05T02:01:59.642Z,4.68
2017-02-05T02:03:00.312Z,4.67
2017-02-05T02:04:00.988Z,4.68
2017-02-05T02:05:01.667Z,4.58
2017-02-05T02:06:02.355Z,4.6
2017-02-05T02:07:03.039Z,4.55
2017-02-05T02:08:03.707Z,4.58
2017-02-05T02:09:04.460Z,4.59
2017-02-05T02:10:05.145Z,4.74
2017-02-05T02:11:05.833Z,4.73
2017-02-05T02:12:06.498Z,4.66
2017-02-05T02:13:07.267Z,4.63
2017-02-05T02:14:07.921Z,4.63
2017-02-05T02:15:08.591Z,4.55
2017-02-05T02:16:09.321Z,4.52
2017-02-05T02:17:10.039Z,4.53
2017-02-05T02:18:10.705Z,4.49
2017-02-05T02:19:11.582Z,4.45
2017-02-05T02:20:12.270Z,4.4
2017-02-05T02:21:12.951Z,4.48
2017-02-05T02:22:13.625Z,4.44
2017-02-05T02:23:14.309Z,4.49
2017-02-05T02:24:14.980Z,4.44
2017-02-05T02:25:15.649Z,4.41
2017-02-05T02:26:16.323Z,4.3
2017-02-05T02:27:17.001Z,4.49
2017-02-05T02:28:17.678Z,4.38
2017-02-05T02:29:18.373Z,4.3
2017-02-05T02:30:19.069Z,4.28
2017-02-05T02:31:19.746Z,4.44
2017-02-05T02:32:20.432Z,4.44
2017-02-05T02:33:21.105Z,4.31
2017-02-05T02:34:21.784Z,4.3
2017-02-05T02:35:22.456Z,4.31
2017-02-05T02:36:23.127Z,4.4
2017-02-05T02:37:23.802Z,4.38
2017-02-05T02:38:24.480Z,4.3
2017-02-05T02:39:25.164Z,4.34
2017-02-05T02:40:25.837Z,4.38
2017-02-05T02:41:26.520Z,4.37
2017-02-05T02:42:27.195Z,4.42
2017-02-05T02:43:27.870Z,4.32
2017-02-05T02:44:28.551Z,4.32
2017-02-05T02:45:29.225Z,4.3
2017-02-05T02:46:29.900Z,4.37
2017-02-05T02:47:30.584Z,4.35
2017-02-05T02:48:31.287Z,4.28
2017-02-05T02:49:31.985Z,4.26
2017-02-05T02:50:32.654Z,4.28
2017-02-05T02:51:33.349Z,4.31
2017-02-05T02:52:34.035Z,4.28
2017-02-05T02:53:34.712Z,4.24
2017-02-05T02:54:35.394Z,4.19
2017-02-05T02:55:36.089Z,4.23
2017-02-05T02:56:36.776Z,4.24
2017-02-05T02:57:37.441Z,4.35
2017-02-05T02:58:38.109Z,4.28
2017-02-05T02:59:38.821Z,4.35
2017-02-05T03:00:39.505Z,4.32
2017-02-05T03:01:40.170Z,4.31
2017-02-05T03:02:40.870Z,4.3
2017-02-05T03:03:41.554Z,4.23
2017-02-05T03:04:42.221Z,4.31
2017-02-05T03:05:42.914Z,4.34
2017-02-05T03:06:43.586Z,4.31
2017-02-05T03:07:44.242Z,4.44
2017-02-05T03:08:44.908Z,4.38
2017-02-05T03:09:45.674Z,4.31
2017-02-05T03:10:46.352Z,4.37
2017-02-05T03:11:47.023Z,4.37
2017-02-05T03:12:47.700Z,4.4
2017-02-05T03:13:48.471Z,4.38
2017-02-05T03:14:49.148Z,4.4
2017-02-05T03:15:49.831Z,4.41
2017-02-05T03:16:50.498Z,4.42
2017-02-05T03:17:51.183Z,4.41
2017-02-05T03:18:51.869Z,4.44
2017-02-05T03:19:52.558Z,4.4
2017-02-05T03:20:53.236Z,4.42
2017-02-05T03:21:53.913Z,4.44
2017-02-05T03:22:54.580Z,4.44
2017-02-05T03:23:55.266Z,4.53
2017-02-05T03:24:55.939Z,4.5
2017-02-05T03:25:56.622Z,4.55
2017-02-05T03:26:57.287Z,4.55
2017-02-05T03:27:57.962Z,4.6
2017-02-05T03:28:58.632Z,4.52
2017-02-05T03:29:59.323Z,4.56
2017-02-05T03:31:00.014Z,4.55
2017-02-05T03:32:00.690Z,4.56
2017-02-05T03:33:01.373Z,4.52
2017-02-05T03:34:02.047Z,4.56
2017-02-05T03:35:02.732Z,4.56
2017-02-05T03:36:03.414Z,4.55
2017-02-05T03:37:04.101Z,4.58
2017-02-05T03:38:04.780Z,4.55
2017-02-05T03:39:05.448Z,4.56
2017-02-05T03:40:06.127Z,4.62
2017-02-05T03:41:06.812Z,4.66
2017-02-05T03:42:07.495Z,4.63
2017-02-05T03:43:08.199Z,4.56
2017-02-05T03:44:08.869Z,4.52
2017-02-05T03:45:09.533Z,4.53
2017-02-05T03:46:10.211Z,4.56
2017-02-05T03:47:10.878Z,4.5
2017-02-05T03:48:11.549Z,4.45
2017-02-05T03:49:12.217Z,4.52
2017-02-05T03:50:12.891Z,4.44
2017-02-05T03:51:13.585Z,4.42
2017-02-05T03:52:14.270Z,4.5
2017-02-05T03:53:14.975Z,4.45
2017-02-05T03:54:15.652Z,4.45
2017-02-05T03:55:16.348Z,4.4
2017-02-05T03:56:17.027Z,4.48
2017-02-05T03:57:17.719Z,4.42
2017-02-05T03:58:18.400Z,4.44
2017-02-05T03:59:19.106Z,4.44
2017-02-05T04:00:19.781Z,4.31
2017-02-05T04:01:20.468Z,4.42
2017-02-05T04:02:21.145Z,4.44
2017-02-05T04:03:21.824Z,4.48
2017-02-05T04:04:22.500Z,4.4
2017-02-05T04:05:23.165Z,4.49
2017-02-05T04:06:23.840Z,4.55
2017-02-05T04:07:24.521Z,4.48
2017-02-05T04:08:25.207Z,4.53
2017-02-05T04:09:25.891Z,4.55
2017-02-05T04:10:26.584Z,4.52
2017-02-05T04:11:27.245Z,4.49
2017-02-05T04:12:27.905Z,4.48
2017-02-05T04:13:28.567Z,4.52
2017-02-05T04:14:29.241Z,4.5
2017-02-05T04:15:29.934Z,4.53
2017-02-05T04:16:30.624Z,4.41
2017-02-05T04:17:31.288Z,4.38
2017-02-05T04:18:31.960Z,4.41
2017-02-05T04:19:32.661Z,4.5
2017-02-05T04:20:33.331Z,4.55
2017-02-05T04:21:34.006Z,4.5
2017-02-05T04:22:34.669Z,4.49
2017-02-05T04:23:35.376Z,4.4
2017-02-05T04:24:36.051Z,4.52
2017-02-05T04:25:36.738Z,4.49
2017-02-05T04:26:37.420Z,4.48
2017-02-05T04:27:38.110Z,4.48
2017-02-05T04:28:38.800Z,4.45
2017-02-05T04:29:39.490Z,4.55
2017-02-05T04:30:40.162Z,4.49
2017-02-05T04:31:40.842Z,4.44
2017-02-05T04:32:41.559Z,4.41
2017-02-05T04:33:42.243Z,4.45
2017-02-05T04:34:42.933Z,4.35
2017-02-05T04:35:43.614Z,4.42
2017-02-05T04:36:44.286Z,4.42
2017-02-05T04:37:44.977Z,4.45
2017-02-05T04:38:45.656Z,4.55
2017-02-05T04:39:46.333Z,4.52
2017-02-05T04:40:46.998Z,4.49
2017-02-05T04:41:47.674Z,4.55
2017-02-05T04:42:48.334Z,4.5
2017-02-05T04:43:49.013Z,4.5
2017-02-05T04:44:49.684Z,4.49
2017-02-05T04:45:50.365Z,4.49
2017-02-05T04:46:51.130Z,4.45
2017-02-05T04:47:51.805Z,4.42
2017-02-05T04:48:52.480Z,4.4
2017-02-05T04:49:53.143Z,4.4
2017-02-05T04:50:53.820Z,4.32
2017-02-05T04:51:54.501Z,4.35
2017-02-05T04:52:55.164Z,4.34
2017-02-05T04:53:55.838Z,4.34
2017-02-05T04:54:56.550Z,4.37
2017-02-05T04:55:57.267Z,4.4
2017-02-05T04:56:57.985Z,4.38
2017-02-05T04:57:58.661Z,4.41
2017-02-05T04:58:59.347Z,4.32
2017-02-05T05:00:00.027Z,4.35
2017-02-05T05:01:00.710Z,4.35
2017-02-05T05:02:01.425Z,4.4
2017-02-05T05:03:02.097Z,4.38
2017-02-05T05:04:02.773Z,4.41
2017-02-05T05:05:03.448Z,4.48
2017-02-05T05:06:04.128Z,4.48
2017-02-05T05:07:04.782Z,4.42
2017-02-05T05:08:05.453Z,4.37
2017-02-05T05:09:06.133Z,4.35
2017-02-05T05:10:06.807Z,4.37
2017-02-05T05:11:07.472Z,4.38
2017-02-05T05:12:08.194Z,4.32
2017-02-05T05:13:08.873Z,4.44
2017-02-05T05:14:09.564Z,4.4
2017-02-05T05:15:10.268Z,4.35
2017-02-05T05:16:10.941Z,4.38
2017-02-05T05:17:11.616Z,4.4
2017-02-05T05:18:12.302Z,4.3
2017-02-05T05:19:13.005Z,4.38
2017-02-05T05:20:13.690Z,4.35
2017-02-05T05:21:14.367Z,4.4
2017-02-05T05:22:15.034Z,4.3
2017-02-05T05:23:15.713Z,4.28
2017-02-05T05:24:16.389Z,4.31
2017-02-05T05:25:17.062Z,4.41
2017-02-05T05:26:17.744Z,4.31
2017-02-05T05:27:18.464Z,4.42
2017-02-05T05:28:19.153Z,4.31
2017-02-05T05:29:19.828Z,4.38
2017-02-05T05:30:20.511Z,4.31
2017-02-05T05:31:21.181Z,4.3
2017-02-05T05:32:21.872Z,4.26
2017-02-05T05:33:22.546Z,4.35
2017-02-05T05:34:23.218Z,4.4
2017-02-05T05:35:23.888Z,4.41
2017-02-05T05:36:24.563Z,4.42
2017-02-05T05:37:25.233Z,4.35
2017-02-05T05:38:25.916Z,4.35
2017-02-05T05:39:26.587Z,4.41
2017-02-05T05:40:27.251Z,4.4
2017-02-05T05:41:27.949Z,4.37
2017-02-05T05:42:28.750Z,4.38
2017-02-05T05:43:29.433Z,4.41
2017-02-05T05:44:30.167Z,4.3
2017-02-05T05:45:30.853Z,4.37
2017-02-05T05:46:31.527Z,4.4
2017-02-05T05:47:32.199Z,4.38
2017-02-05T05:48:32.874Z,4.28
2017-02-05T05:49:33.551Z,4.28
2017-02-05T05:50:34.235Z,4.31
2017-02-05T05:51:34.905Z,4.26
2017-02-05T05:52:35.612Z,4.3
2017-02-05T05:53:36.283Z,4.2
2017-02-05T05:54:36.959Z,4.28
2017-02-05T05:55:37.641Z,4.23
2017-02-05T05:56:38.349Z,4.35
2017-02-05T05:57:39.025Z,4.34
2017-02-05T05:58:39.705Z,4.19
2017-02-05T05:59:40.374Z,4.28
2017-02-05T06:00:41.052Z,4.2
2017-02-05T06:01:41.727Z,4.3
2017-02-05T06:02:42.399Z,4.19
2017-02-05T06:03:43.072Z,4.26
2017-02-05T06:04:43.740Z,4.2
2017-02-05T06:05:44.416Z,4.12
2017-02-05T06:06:45.093Z,4.17
2017-02-05T06:07:45.760Z,4.08
2017-02-05T06:08:46.432Z,4.16
2017-02-05T06:09:47.099Z,4.01
2017-02-05T06:10:47.777Z,4.12
2017-02-05T06:11:48.451Z,4.06
2017-02-05T06:12:49.142Z,4.12
2017-02-05T06:13:49.830Z,4.17
2017-02-05T06:14:50.512Z,4.23
2017-02-05T06:15:51.189Z,4.14
2017-02-05T06:16:51.855Z,4.13
2017-02-05T06:17:52.520Z,4.01
2017-02-05T06:18:53.229Z,4.16
2017-02-05T06:19:53.891Z,4.08
2017-02-05T06:20:54.584Z,4.1
2017-02-05T06:21:55.286Z,4.12
2017-02-05T06:22:55.981Z,4.02
2017-02-05T06:23:56.650Z,4.01
2017-02-05T06:24:57.342Z,4.05
2017-02-05T06:25:58.010Z,3.94
2017-02-05T06:26:58.692Z,4.04
2017-02-05T06:27:59.365Z,4.02
2017-02-05T06:29:00.052Z,4.12
2017-02-05T06:30:00.722Z,4.04
2017-02-05T06:31:01.398Z,4.1
2017-02-05T06:32:02.077Z,3.99
2017-02-05T06:33:02.769Z,4.06
2017-02-05T06:34:03.447Z,4.12
2017-02-05T06:35:04.185Z,4.12
2017-02-05T06:36:04.868Z,4.13
2017-02-05T06:37:05.552Z,3.99
2017-02-05T06:38:06.243Z,4.01
2017-02-05T06:39:06.927Z,4.01
2017-02-05T06:40:07.600Z,4.04
2017-02-05T06:41:08.278Z,4.08
2017-02-05T06:42:08.950Z,3.95
2017-02-05T06:43:09.617Z,4.13
2017-02-05T06:44:10.298Z,3.92
2017-02-05T06:45:10.971Z,4.02
2017-02-05T06:46:11.632Z,4.01
2017-02-05T06:47:12.306Z,3.95
2017-02-05T06:48:12.983Z,4.14
2017-02-05T06:49:13.665Z,4.02
2017-02-05T06:50:14.329Z,4.05
2017-02-05T06:51:15.021Z,3.98
2017-02-05T06:52:15.702Z,4.1
2017-02-05T06:53:16.370Z,3.98
2017-02-05T06:54:17.052Z,3.95
2017-02-05T06:55:17.751Z,3.99
2017-02-05T06:56:18.426Z,3.95
2017-02-05T06:57:19.144Z,4.01
2017-02-05T06:58:19.838Z,3.99
2017-02-05T06:59:20.518Z,4.01
2017-02-05T07:00:21.196Z,4.02
2017-02-05T07:01:21.860Z,3.94
2017-02-05T07:02:22.537Z,3.94
2017-02-05T07:03:23.226Z,3.94
2017-02-05T07:04:23.906Z,3.88
2017-02-05T07:05:24.583Z,3.87
2017-02-05T07:06:25.258Z,3.87
2017-02-05T07:07:25.927Z,3.84
2017-02-05T07:08:26.616Z,3.7
2017-02-05T07:09:27.287Z,3.81
2017-02-05T07:10:27.968Z,3.77
2017-02-05T07:11:28.654Z,3.8
2017-02-05T07:12:29.313Z,3.84
2017-02-05T07:13:30.013Z,3.73
2017-02-05T07:14:30.721Z,3.77
2017-02-05T07:15:31.392Z,3.74
2017-02-05T07:16:32.085Z,3.73
2017-02-05T07:17:32.758Z,3.6
2017-02-05T07:18:33.433Z,3.63
2017-02-05T07:19:34.119Z,3.78
2017-02-05T07:20:34.793Z,3.69
2017-02-05T07:21:35.461Z,3.76
2017-02-05T07:22:36.141Z,3.74
2017-02-05T07:23:36.819Z,3.83
2017-02-05T07:24:37.495Z,3.94
2017-02-05T07:25:38.184Z,3.83
2017-02-05T07:26:38.852Z,3.87
2017-02-05T07:27:39.529Z,3.62
2017-02-05T07:28:40.210Z,3.68
2017-02-05T07:29:40.879Z,3.55
2017-02-05T07:30:41.558Z,3.58
2017-02-05T07:31:42.240Z,3.58
2017-02-05T07:32:42.916Z,3.53
2017-02-05T07:33:43.583Z,3.51
2017-02-05T07:34:44.268Z,3.56
2017-02-05T07:35:44.947Z,3.51
2017-02-05T07:36:45.622Z,3.48
2017-02-05T07:37:46.298Z,3.53
2017-02-05T07:38:47.049Z,3.5
2017-02-05T07:39:47.691Z,3.47
2017-02-05T07:40:48.397Z,3.48
2017-02-05T07:41:49.084Z,3.48
2017-02-05T07:42:49.766Z,3.56
2017-02-05T07:43:50.450Z,3.5
2017-02-05T07:44:51.124Z,3.58
2017-02-05T07:45:51.798Z,3.69
2017-02-05T07:46:52.492Z,3.63
2017-02-05T07:47:53.208Z,3.56
2017-02-05T07:48:53.889Z,3.58
2017-02-05T07:49:54.568Z,3.56
2017-02-05T07:50:55.236Z,3.48
2017-02-05T07:51:55.900Z,3.45
2017-02-05T07:52:56.586Z,3.55
2017-02-05T07:53:57.271Z,3.5
2017-02-05T07:54:57.947Z,3.55
2017-02-05T07:55:58.661Z,3.53
2017-02-05T07:56:59.323Z,3.48
2017-02-05T07:57:59.999Z,3.48
2017-02-05T07:59:00.696Z,3.47
2017-02-05T08:00:01.394Z,3.45
2017-02-05T08:01:02.059Z,3.42
2017-02-05T08:02:02.741Z,3.31
2017-02-05T08:03:03.426Z,3.34
2017-02-05T08:04:04.107Z,3.34
2017-02-05T08:05:04.807Z,3.34
2017-02-05T08:06:05.508Z,3.25
2017-02-05T08:07:06.175Z,3.16
2017-02-05T08:08:06.854Z,3.22
2017-02-05T08:09:07.531Z,3.22
2017-02-05T08:10:08.213Z,3.28
2017-02-05T08:11:08.897Z,3.25
2017-02-05T08:12:09.576Z,3.23
2017-02-05T08:13:10.274Z,3.21
2017-02-05T08:14:10.954Z,3.29
2017-02-05T08:15:11.647Z,3.22
2017-02-05T08:16:12.338Z,3.28
2017-02-05T08:17:13.001Z,3.26
2017-02-05T08:18:13.667Z,3.29
2017-02-05T08:19:14.344Z,3.34
2017-02-05T08:20:15.017Z,3.32
2017-02-05T08:21:15.687Z,3.34
2017-02-05T08:22:16.360Z,3.36
2017-02-05T08:23:17.035Z,3.26
2017-02-05T08:24:17.735Z,3.29
2017-02-05T08:25:18.411Z,3.36
2017-02-05T08:26:19.096Z,3.29
2017-02-05T08:27:19.777Z,3.25
2017-02-05T08:28:20.454Z,3.29
2017-02-05T08:29:21.153Z,3.29
2017-02-05T08:30:21.837Z,3.41
2017-02-05T08:31:22.522Z,3.47
2017-02-05T08:32:23.190Z,3.4
2017-02-05T08:33:23.876Z,3.26
2017-02-05T08:34:24.545Z,3.34
2017-02-05T08:35:25.234Z,3.31
2017-02-05T08:36:25.907Z,3.28
2017-02-05T08:37:26.609Z,3.16
2017-02-05T08:38:27.309Z,3.22
2017-02-05T08:39:27.985Z,3.16
2017-02-05T08:40:28.675Z,3.13
2017-02-05T08:41:29.383Z,3.11
2017-02-05T08:42:30.102Z,3.13
2017-02-05T08:43:30.790Z,3.05
2017-02-05T08:44:31.457Z,3.18
2017-02-05T08:45:32.151Z,3.01
2017-02-05T08:46:32.846Z,3.05
2017-02-05T08:47:33.511Z,3.13
2017-02-05T08:48:34.204Z,3.1
2017-02-05T08:49:34.873Z,3.08
2017-02-05T08:50:35.545Z,3.13
2017-02-05T08:51:36.263Z,3.04
2017-02-05T08:52:36.982Z,3.07
2017-02-05T08:53:37.658Z,3.11
2017-02-05T08:54:38.340Z,3.05
2017-02-05T08:55:39.010Z,3.07
2017-02-05T08:56:39.677Z,3.1
2017-02-05T08:57:40.351Z,2.95
2017-02-05T08:58:41.033Z,2.93
2017-02-05T08:59:41.718Z,2.89
2017-02-05T09:00:42.403Z,2.9
2017-02-05T09:01:43.094Z,2.87
2017-02-05T09:02:43.777Z,2.9
2017-02-05T09:03:44.452Z,2.98
2017-02-05T09:04:45.131Z,2.93
2017-02-05T09:05:45.821Z,2.92
2017-02-05T09:06:46.505Z,3.07
2017-02-05T09:07:47.187Z,3.03
2017-02-05T09:08:47.846Z,3.08
2017-02-05T09:09:48.529Z,3.08
2017-02-05T09:10:49.209Z,3.04
2017-02-05T09:11:49.888Z,3.03
2017-02-05T09:12:50.590Z,3
2017-02-05T09:13:51.267Z,2.93
2017-02-05T09:14:51.942Z,3.07
2017-02-05T09:15:52.640Z,3
2017-02-05T09:16:53.310Z,3.07
2017-02-05T09:17:53.985Z,3
2017-02-05T09:18:54.687Z,3.1
2017-02-05T09:19:55.349Z,3.13
2017-02-05T09:20:56.029Z,3.05
2017-02-05T09:21:56.801Z,3.1
2017-02-05T09:22:57.483Z,3.1
2017-02-05T09:23:58.148Z,3.08
2017-02-05T09:24:58.827Z,3.08
2017-02-05T09:25:59.548Z,3.04
2017-02-05T09:27:00.228Z,3.08
2017-02-05T09:28:00.902Z,3.04
2017-02-05T09:29:01.578Z,2.87
2017-02-05T09:30:02.256Z,3
2017-02-05T09:31:03.741Z,2.9
2017-02-05T09:32:04.461Z,2.9
2017-02-05T09:33:05.139Z,3.03
2017-02-05T09:34:05.829Z,3.11
2017-02-05T09:35:06.527Z,3.08
2017-02-05T09:36:07.258Z,3.04
2017-02-05T09:37:07.994Z,3.01
2017-02-05T09:38:08.659Z,3.1
2017-02-05T09:39:09.360Z,3.07
2017-02-05T09:40:10.071Z,3.05
2017-02-05T09:41:10.755Z,3.01
2017-02-05T09:42:11.496Z,3.05
2017-02-05T09:43:12.352Z,3.1
2017-02-05T09:44:13.106Z,3.13
2017-02-05T09:45:14.083Z,3.1
2017-02-05T09:46:15.122Z,3.08
2017-02-05T09:47:15.963Z,3.01
2017-02-05T09:48:16.608Z,2.93
2017-02-05T09:49:17.278Z,2.87
2017-02-05T09:50:17.980Z,2.89
2017-02-05T09:51:18.904Z,2.92
2017-02-05T09:52:19.662Z,3.07
2017-02-05T09:53:20.475Z,3.04
2017-02-05T09:54:21.297Z,3.04
2017-02-05T09:55:22.007Z,3.03
2017-02-05T09:56:22.774Z,3.01
2017-02-05T09:57:23.702Z,2.97
2017-02-05T09:58:24.847Z,2.93
2017-02-05T09:59:26.473Z,3
2017-02-05T10:00:27.873Z,2.97
2017-02-05T10:01:28.860Z,3.07
2017-02-05T10:02:30.319Z,3.08
2017-02-05T10:03:32.296Z,3.1
